From the snowy mountains to some of the most beautfiul beaches, Alabania offers all.

An unbroken coastline of 450 km (including lagoons) washes the western shores of Albania, extending along the Adriatic and Ionian Sea. It is easy to tell where the Adriatic ends and where the Ionian begins given the sandy shores and jaded waters of the former, and the rocky beaches and green-blue seas of the Ionian. For all cycling lovers, Albania is becoming a very good destination to experience natural beauties and unique panoramic views . That exist many type of tours like the Tour of the Albanian Riviera , Unesco Sites , Albanian Alps or just touring around Tirana or other big cities and exloring the nature around.

Airport GND TWR APP Metar
LATI LATI 220620Z VRB02KT CAVOK 04/03 Q1022 NOSIG

Approved controllers

Coming soon!